createdAt,value
2019-03-04T00:01:19.884Z,99414.37
2019-03-04T00:03:50.792Z,99406.04
2019-03-04T00:06:21.631Z,99391.73
2019-03-04T00:08:52.561Z,99390.59
2019-03-04T00:11:23.357Z,99387.03
2019-03-04T00:13:54.311Z,99382.40
2019-03-04T00:16:25.303Z,99377.72
2019-03-04T00:18:56.194Z,99383.17
2019-03-04T00:21:27.015Z,99385.14
2019-03-04T00:23:57.871Z,99386.80
2019-03-04T00:26:28.729Z,99385.66
2019-03-04T00:28:59.661Z,99369.14
2019-03-04T00:31:30.479Z,99371.99
2019-03-04T00:34:01.349Z,99366.98
2019-03-04T00:36:32.145Z,99370.86
2019-03-04T00:39:03.040Z,99362.84
2019-03-04T00:41:35.455Z,99353.69
2019-03-04T00:44:06.318Z,99362.47
2019-03-04T00:46:37.101Z,99362.43
2019-03-04T00:49:08.025Z,99363.20
2019-03-04T00:51:39.669Z,99367.20
2019-03-04T00:54:10.548Z,99362.63
2019-03-04T00:56:42.526Z,99358.91
2019-03-04T00:59:13.468Z,99362.41
2019-03-04T01:01:44.261Z,99364.25
2019-03-04T01:04:15.208Z,99357.25
2019-03-04T01:06:46.027Z,99356.73
2019-03-04T01:09:17.052Z,99351.45
2019-03-04T01:11:47.880Z,99340.72
2019-03-04T01:14:18.756Z,99350.38
2019-03-04T01:16:49.658Z,99341.20
2019-03-04T01:19:20.507Z,99339.21
2019-03-04T01:21:51.304Z,99332.64
2019-03-04T01:24:23.252Z,99331.59
2019-03-04T01:26:54.062Z,99332.23
2019-03-04T01:29:24.966Z,99340.89
2019-03-04T01:31:55.774Z,99338.13
2019-03-04T01:34:26.626Z,99327.63
2019-03-04T01:36:57.429Z,99324.16
2019-03-04T01:39:28.360Z,99337.87
2019-03-04T01:41:59.206Z,99331.28
2019-03-04T01:44:30.135Z,99318.92
2019-03-04T01:47:00.958Z,99323.30
2019-03-04T01:49:31.824Z,99326.95
2019-03-04T01:52:02.668Z,99313.20
2019-03-04T01:54:33.569Z,99316.59
2019-03-04T01:57:04.375Z,99310.55
2019-03-04T01:59:35.316Z,99311.41
2019-03-04T02:02:06.162Z,99321.33
2019-03-04T02:04:37.076Z,99318.48
2019-03-04T02:07:07.877Z,99310.31
2019-03-04T02:09:38.724Z,99315.41
2019-03-04T02:12:09.542Z,99306.63
2019-03-04T02:14:40.422Z,99311.97
2019-03-04T02:17:11.228Z,99311.59
2019-03-04T02:19:42.186Z,99313.58
2019-03-04T02:22:12.994Z,99314.58
2019-03-04T02:24:43.868Z,99301.50
2019-03-04T02:27:14.675Z,99304.19
2019-03-04T02:29:45.695Z,99302.75
2019-03-04T02:32:17.559Z,99291.94
2019-03-04T02:34:48.482Z,99296.75
2019-03-04T02:37:19.307Z,99299.58
2019-03-04T02:39:50.188Z,99295.55
2019-03-04T02:42:20.980Z,99298.39
2019-03-04T02:44:51.862Z,99297.81
2019-03-04T02:47:22.657Z,99290.48
2019-03-04T02:49:53.514Z,99277.08
2019-03-04T02:52:25.236Z,99278.08
2019-03-04T02:54:56.135Z,99275.95
2019-03-04T02:57:26.928Z,99275.58
2019-03-04T02:59:57.876Z,99270.77
2019-03-04T03:02:28.682Z,99270.94
2019-03-04T03:04:59.560Z,99281.06
2019-03-04T03:07:30.391Z,99283.63
2019-03-04T03:10:01.244Z,99286.67
2019-03-04T03:12:33.190Z,99281.75
2019-03-04T03:15:09.461Z,99281.78
2019-03-04T03:17:40.349Z,99287.44
2019-03-04T03:20:12.489Z,99287.32
2019-03-04T03:22:44.326Z,99283.70
2019-03-04T03:25:15.919Z,99274.32
2019-03-04T03:27:46.747Z,99275.78
2019-03-04T03:30:19.241Z,99272.86
2019-03-04T03:32:50.046Z,99274.26
2019-03-04T03:35:20.948Z,99270.15
2019-03-04T03:37:51.756Z,99268.72
2019-03-04T03:40:22.647Z,99263.44
2019-03-04T03:42:53.541Z,99267.91
2019-03-04T03:45:24.435Z,99273.65
2019-03-04T03:47:55.202Z,99269.76
2019-03-04T03:50:26.063Z,99252.61
2019-03-04T03:52:57.766Z,99265.08
2019-03-04T03:55:28.656Z,99262.06
2019-03-04T03:57:59.555Z,99246.88
2019-03-04T04:00:30.430Z,99246.61
2019-03-04T04:03:01.239Z,99251.16
2019-03-04T04:05:32.107Z,99269.63
2019-03-04T04:08:02.924Z,99247.21
2019-03-04T04:10:33.761Z,99251.56
2019-03-04T04:13:04.662Z,99248.97
2019-03-04T04:15:35.560Z,99255.05
2019-03-04T04:18:06.385Z,99251.28
2019-03-04T04:20:37.304Z,99237.11
2019-03-04T04:23:08.084Z,99241.81
2019-03-04T04:25:39.030Z,99241.39
2019-03-04T04:28:10.126Z,99243.56
2019-03-04T04:30:41.062Z,99238.77
2019-03-04T04:33:11.889Z,99240.01
2019-03-04T04:35:42.771Z,99245.61
2019-03-04T04:38:14.572Z,99238.29
2019-03-04T04:40:45.437Z,99234.70
2019-03-04T04:43:16.208Z,99234.27
2019-03-04T04:45:47.059Z,99244.02
2019-03-04T04:48:17.946Z,99245.06
2019-03-04T04:50:48.836Z,99241.10
2019-03-04T04:53:20.676Z,99236.91
2019-03-04T04:55:51.793Z,99221.50
2019-03-04T04:58:22.606Z,99237.43
2019-03-04T05:00:53.572Z,99228.11
2019-03-04T05:03:24.371Z,99239.20
2019-03-04T05:05:55.300Z,99237.23
2019-03-04T05:08:26.331Z,99243.73
2019-03-04T05:10:57.182Z,99244.60
2019-03-04T05:13:28.002Z,99252.72
2019-03-04T05:15:58.855Z,99253.95
2019-03-04T05:18:29.698Z,99253.52
2019-03-04T05:21:00.572Z,99260.30
2019-03-04T05:23:31.448Z,99259.72
2019-03-04T05:26:02.411Z,99252.41
2019-03-04T05:28:33.323Z,99252.80
2019-03-04T05:31:04.326Z,99252.31
2019-03-04T05:33:35.136Z,99254.23
2019-03-04T05:36:06.105Z,99256.98
2019-03-04T05:38:37.958Z,99252.25
2019-03-04T05:41:08.855Z,99251.64
